Time;durP1;ratioP1;P1;durP2;ratioP2;P2;SDS_P1;SDS_P2;PMS_P1;PMS_P2;Temp;Humidity;BMP_temperature;BMP_pressure;BME280_temperature;BME280_humidity;BME280_pressure;Samples;Min_cycle;Max_cycle;Signal;HPM_P1;HPM_P2
2022/12/04 00:02:13;;;;;;;48.58;32.58;;;0.40;99.90;;;;;;5036440;28;20548;-81
2022/12/04 00:04:38;;;;;;;49.22;33.60;;;0.40;99.90;;;;;;5025135;28;20041;-81
2022/12/04 00:07:04;;;;;;;50.35;34.28;;;0.40;99.90;;;;;;5051853;28;20098;-81
2022/12/04 00:09:30;;;;;;;52.08;35.05;;;0.40;99.90;;;;;;5060658;28;20398;-81
2022/12/04 00:11:55;;;;;;;50.85;35.03;;;0.40;99.90;;;;;;5039054;28;20043;-81
2022/12/04 00:14:21;;;;;;;50.40;35.05;;;0.40;99.90;;;;;;5036615;28;20040;-81
2022/12/04 00:16:46;;;;;;;50.63;35.33;;;0.40;99.90;;;;;;5045487;28;20037;-82
2022/12/04 00:19:12;;;;;;;51.13;34.55;;;0.50;99.90;;;;;;5043661;28;20550;-81
2022/12/04 00:21:37;;;;;;;51.35;34.00;;;0.40;99.90;;;;;;5049626;28;20040;-81
2022/12/04 00:24:03;;;;;;;54.22;35.95;;;0.50;99.90;;;;;;5051953;28;20082;-81
2022/12/04 00:26:30;;;;;;;50.80;35.63;;;0.50;99.90;;;;;;5033682;28;20083;-81
2022/12/04 00:28:55;;;;;;;53.10;35.97;;;0.50;99.90;;;;;;5046478;28;20692;-81
2022/12/04 00:31:27;;;;;;;54.15;34.80;;;0.50;99.90;;;;;;5056287;28;20266;-82
2022/12/04 00:33:53;;;;;;;55.78;36.22;;;0.50;99.90;;;;;;5059861;28;20478;-81
2022/12/04 00:36:21;;;;;;;54.03;35.28;;;0.40;99.90;;;;;;5056802;28;20050;-81
2022/12/04 00:38:47;;;;;;;51.75;36.13;;;0.40;99.90;;;;;;5055174;28;20036;-82
2022/12/04 00:41:15;;;;;;;50.08;34.38;;;0.40;99.90;;;;;;5049109;28;20043;-82
2022/12/04 00:43:41;;;;;;;55.28;35.70;;;0.40;99.90;;;;;;5040454;28;20569;-82
2022/12/04 00:46:06;;;;;;;51.95;35.78;;;0.40;99.90;;;;;;5036176;28;20128;-82
2022/12/04 00:48:32;;;;;;;54.97;36.78;;;0.40;99.90;;;;;;5067685;28;20174;-81
2022/12/04 00:51:05;;;;;;;55.17;36.33;;;0.40;99.90;;;;;;5047065;28;20115;-82
2022/12/04 00:53:31;;;;;;;53.38;37.45;;;0.40;99.90;;;;;;5042792;28;20044;-82
2022/12/04 00:55:57;;;;;;;54.35;37.80;;;0.40;99.90;;;;;;5057307;28;20040;-82
2022/12/04 00:58:22;;;;;;;53.08;37.05;;;0.40;99.90;;;;;;5047493;28;20032;-81
2022/12/04 01:00:48;;;;;;;53.42;36.03;;;0.40;99.90;;;;;;5040657;28;20071;-82
2022/12/04 01:03:14;;;;;;;55.75;37.15;;;0.40;99.90;;;;;;5039864;28;20113;-81
2022/12/04 01:05:41;;;;;;;53.28;36.33;;;0.40;99.90;;;;;;5064366;28;20032;-82
2022/12/04 01:08:08;;;;;;;53.80;36.42;;;0.40;99.90;;;;;;5053388;28;20032;-82
2022/12/04 01:10:36;;;;;;;57.13;37.80;;;0.30;99.90;;;;;;5061702;28;20113;-81
2022/12/04 01:13:02;;;;;;;54.63;37.03;;;0.40;99.90;;;;;;5060903;28;20036;-82
2022/12/04 01:15:27;;;;;;;55.90;37.38;;;0.40;99.90;;;;;;5039453;28;20487;-81
2022/12/04 01:17:53;;;;;;;53.03;36.55;;;0.40;99.90;;;;;;5040446;28;20037;-81
2022/12/04 01:20:18;;;;;;;53.75;36.33;;;0.40;99.90;;;;;;5052272;28;20071;-81
2022/12/04 01:22:44;;;;;;;56.90;38.03;;;0.40;99.90;;;;;;5029766;28;20075;-81
2022/12/04 01:25:10;;;;;;;54.70;36.17;;;0.40;99.90;;;;;;5037932;28;20037;-82
2022/12/04 01:27:35;;;;;;;52.78;37.05;;;0.40;99.90;;;;;;5038242;28;20507;-82
2022/12/04 01:30:01;;;;;;;55.70;37.35;;;0.40;99.90;;;;;;5032054;28;20037;-81
2022/12/04 01:32:27;;;;;;;57.95;37.83;;;0.40;99.90;;;;;;5042359;28;20037;-81
2022/12/04 01:34:53;;;;;;;54.92;36.95;;;0.40;99.90;;;;;;5038555;28;20029;-81
2022/12/04 01:37:18;;;;;;;56.35;38.42;;;0.40;99.90;;;;;;5062928;28;20043;-81
2022/12/04 01:39:44;;;;;;;57.40;37.97;;;0.40;99.90;;;;;;5076951;28;20510;-82
2022/12/04 01:42:14;;;;;;;56.35;37.72;;;0.40;99.90;;;;;;5054489;28;20036;-82
2022/12/04 01:45:04;;;;;;;55.00;36.63;;;0.40;99.90;;;;;;5061904;28;20135;-81
2022/12/04 01:47:30;;;;;;;56.80;38.13;;;0.40;99.90;;;;;;5042483;28;20037;-81
2022/12/04 01:49:57;;;;;;;58.85;39.60;;;0.40;99.90;;;;;;5038327;28;20040;-82
2022/12/04 01:52:25;;;;;;;54.83;38.70;;;0.40;99.90;;;;;;5054059;28;20033;-81
2022/12/04 01:54:56;;;;;;;55.67;37.63;;;0.40;99.90;;;;;;5033857;28;20051;-81
2022/12/04 01:57:26;;;;;;;57.72;38.97;;;0.40;99.90;;;;;;5034997;28;20805;-82
2022/12/04 01:59:56;;;;;;;58.83;37.63;;;0.40;99.90;;;;;;5043562;28;20096;-81
2022/12/04 02:02:28;;;;;;;57.70;38.13;;;0.40;99.90;;;;;;5025457;28;20044;-82
2022/12/04 02:04:55;;;;;;;56.30;37.42;;;0.40;99.90;;;;;;5029968;28;20429;-82
2022/12/04 02:07:21;;;;;;;60.60;39.15;;;0.40;99.90;;;;;;5032848;28;20033;-82
2022/12/04 02:09:52;;;;;;;56.97;38.97;;;0.40;99.90;;;;;;5051007;28;20033;-81
2022/12/04 02:12:44;;;;;;;60.85;39.85;;;0.40;99.90;;;;;;5034528;28;20037;-82
2022/12/04 02:15:38;;;;;;;58.03;38.75;;;0.40;99.90;;;;;;5049410;28;20064;-81
2022/12/04 02:18:16;;;;;;;55.05;37.78;;;0.40;99.90;;;;;;5039133;28;20230;-81
2022/12/04 02:21:08;;;;;;;58.88;39.22;;;0.40;99.90;;;;;;5039155;28;20041;-82
2022/12/04 02:24:01;;;;;;;56.53;38.83;;;0.40;99.90;;;;;;5050414;28;20522;-81
2022/12/04 02:26:36;;;;;;;57.08;40.35;;;0.40;99.90;;;;;;5033644;28;20499;-82
2022/12/04 02:29:26;;;;;;;58.88;39.47;;;0.50;99.90;;;;;;5039452;28;20032;-82
2022/12/04 02:32:02;;;;;;;60.22;40.78;;;0.40;99.90;;;;;;5030548;28;20486;-82
2022/12/04 02:34:36;;;;;;;63.38;40.95;;;0.40;99.90;;;;;;5049927;28;20398;-81
2022/12/04 02:37:09;;;;;;;58.80;40.90;;;0.40;99.90;;;;;;5045807;28;20059;-81
2022/12/04 02:39:41;;;;;;;57.70;39.20;;;0.40;99.90;;;;;;5051614;28;20494;-82
2022/12/04 02:42:19;;;;;;;49.72;20.30;;;0.40;99.90;;;;;;5054458;28;20131;-81
2022/12/04 02:45:04;;;;;;;59.67;40.03;;;0.40;99.90;;;;;;5054735;28;20028;-81
2022/12/04 02:47:32;;;;;;;62.65;41.55;;;0.40;99.90;;;;;;5054386;28;20032;-81
2022/12/04 02:50:00;;;;;;;61.40;41.00;;;0.40;99.90;;;;;;5055697;28;20555;-81
2022/12/04 02:52:34;;;;;;;65.57;42.35;;;0.40;99.90;;;;;;5061611;28;20032;-81
2022/12/04 02:55:32;;;;;;;62.80;41.53;;;0.40;99.90;;;;;;5036168;28;20052;-81
2022/12/04 02:58:04;;;;;;;62.30;41.25;;;0.40;99.90;;;;;;5040117;28;20048;-81
2022/12/04 03:00:32;;;;;;;61.88;40.85;;;0.30;99.90;;;;;;5050405;28;20094;-81
2022/12/04 03:03:15;;;;;;;62.55;40.55;;;0.30;99.90;;;;;;5046846;28;20365;-82
2022/12/04 03:06:06;;;;;;;63.38;43.92;;;0.30;99.90;;;;;;5043380;28;20051;-82
2022/12/04 03:08:38;;;;;;;63.92;41.80;;;0.30;99.90;;;;;;5036736;28;20483;-81
2022/12/04 03:11:04;;;;;;;61.58;41.40;;;0.40;99.90;;;;;;5046776;28;20075;-81
2022/12/04 03:13:49;;;;;;;62.40;42.05;;;0.30;99.90;;;;;;5055642;28;20104;-81
2022/12/04 03:16:17;;;;;;;61.10;41.65;;;0.30;99.90;;;;;;5041673;28;20048;-82
2022/12/04 03:18:49;;;;;;;64.18;42.25;;;0.30;99.90;;;;;;5051637;28;20410;-82
2022/12/04 03:21:21;;;;;;;65.53;42.65;;;0.30;99.90;;;;;;5043155;28;20037;-81
2022/12/04 03:23:58;;;;;;;64.15;42.58;;;0.30;99.90;;;;;;5045165;28;20093;-82
2022/12/04 03:26:36;;;;;;;63.45;41.30;;;0.30;99.90;;;;;;5055196;28;20397;-82
2022/12/04 03:29:16;;;;;;;60.60;41.03;;;0.30;99.90;;;;;;5045999;28;20041;-82
2022/12/04 03:32:12;;;;;;;62.30;42.00;;;0.30;99.90;;;;;;5064937;28;20044;-82
2022/12/04 03:34:59;;;;;;;63.08;42.30;;;0.20;99.90;;;;;;5041215;28;20491;-81
2022/12/04 03:38:03;;;;;;;65.15;42.63;;;0.30;99.90;;;;;;5023899;28;20375;-82
2022/12/04 03:40:55;;;;;;;62.58;42.25;;;0.20;99.90;;;;;;4957082;28;20102;-81
2022/12/04 03:43:39;;;;;;;45.53;20.65;;;0.30;99.90;;;;;;5057508;28;20044;-82
2022/12/04 03:46:23;;;;;;;63.10;41.80;;;0.30;99.90;;;;;;5023365;28;20080;-81
2022/12/04 03:48:54;;;;;;;65.78;42.55;;;0.30;99.90;;;;;;5049977;28;20124;-82
2022/12/04 03:51:35;;;;;;;64.70;43.88;;;0.30;99.90;;;;;;5043258;28;20079;-81
2022/12/04 03:54:11;;;;;;;60.60;41.50;;;0.30;99.90;;;;;;5062487;28;20467;-82
2022/12/04 03:56:46;;;;;;;61.42;41.53;;;0.30;99.90;;;;;;5047839;28;20398;-82
2022/12/04 03:59:19;;;;;;;62.28;42.33;;;0.30;99.90;;;;;;5053075;28;20028;-82
2022/12/04 04:01:48;;;;;;;65.93;42.67;;;0.30;99.90;;;;;;5086867;23;20092;-75
2022/12/04 04:04:19;;;;;;;61.25;41.45;;;0.30;99.90;;;;;;4994839;28;20042;-75
2022/12/04 04:06:51;;;;;;;63.77;41.67;;;0.20;99.90;;;;;;5033286;28;20071;-76
2022/12/04 04:09:23;;;;;;;47.67;21.53;;;0.30;99.90;;;;;;4996574;28;20518;-75
2022/12/04 04:12:01;;;;;;;61.22;42.03;;;0.20;99.90;;;;;;4991444;28;20173;-75
2022/12/04 04:25:52;;;;;;;62.25;42.40;;;0.30;99.90;;;;;;4994797;28;20507;-75
2022/12/04 04:28:36;;;;;;;63.47;42.05;;;0.20;99.90;;;;;;4986523;28;20069;-76
2022/12/04 04:31:16;;;;;;;62.45;42.13;;;0.20;99.90;;;;;;4991982;28;20061;-76
2022/12/04 04:33:56;;;;;;;62.20;42.05;;;0.20;99.90;;;;;;4973217;28;20137;-76
2022/12/04 04:36:42;;;;;;;64.25;42.70;;;0.30;99.90;;;;;;4967565;28;20042;-75
2022/12/04 04:39:41;;;;;;;61.83;42.10;;;0.30;99.90;;;;;;4975602;28;20125;-75
2022/12/04 04:42:27;;;;;;;62.05;41.05;;;0.30;99.90;;;;;;4999820;28;20045;-75
2022/12/04 04:45:34;;;;;;;63.90;43.20;;;0.30;99.90;;;;;;4979017;28;20121;-75
2022/12/04 04:48:15;;;;;;;63.72;42.60;;;0.30;99.90;;;;;;4941996;28;20086;-75
2022/12/04 04:50:43;;;;;;;65.15;42.88;;;0.30;99.90;;;;;;4962960;28;20523;-75
2022/12/04 04:53:16;;;;;;;64.70;41.20;;;0.30;99.90;;;;;;4974378;28;20038;-75
2022/12/04 04:55:43;;;;;;;63.95;43.15;;;0.30;99.90;;;;;;4985102;28;20053;-75
2022/12/04 04:58:15;;;;;;;62.70;42.08;;;0.30;99.90;;;;;;4982008;28;20057;-75
2022/12/04 05:01:01;;;;;;;60.83;42.08;;;0.30;99.90;;;;;;4993502;28;20050;-75
2022/12/04 05:03:28;;;;;;;62.17;41.22;;;0.30;99.90;;;;;;4969905;28;20726;-75
2022/12/04 05:05:54;;;;;;;61.72;41.30;;;0.30;99.90;;;;;;4971713;28;20066;-75
2022/12/04 05:08:21;;;;;;;64.47;43.30;;;0.30;99.90;;;;;;4978276;28;20092;-75
2022/12/04 05:10:47;;;;;;;66.78;43.33;;;0.40;99.90;;;;;;4971724;28;20050;-75
2022/12/04 05:13:14;;;;;;;63.78;42.38;;;0.30;99.90;;;;;;4967462;28;20398;-76
2022/12/04 05:15:40;;;;;;;64.43;41.75;;;0.30;99.90;;;;;;4974853;28;20042;-76
2022/12/04 05:18:06;;;;;;;63.33;42.03;;;0.30;99.90;;;;;;4996810;28;20125;-76
2022/12/04 05:20:32;;;;;;;60.42;42.22;;;0.30;99.90;;;;;;4972679;28;20034;-75
2022/12/04 05:22:58;;;;;;;65.85;43.72;;;0.30;99.90;;;;;;4963489;28;20037;-76
2022/12/04 05:25:24;;;;;;;62.70;42.65;;;0.40;99.90;;;;;;4985862;28;20030;-76
2022/12/04 05:27:50;;;;;;;61.72;40.15;;;0.30;99.90;;;;;;4990869;28;20046;-76
2022/12/04 05:30:16;;;;;;;60.40;41.40;;;0.40;99.90;;;;;;4967322;28;20428;-75
2022/12/04 05:32:41;;;;;;;61.25;41.70;;;0.30;99.90;;;;;;4955480;28;20480;-75
2022/12/04 05:35:07;;;;;;;65.68;42.42;;;0.30;99.90;;;;;;4962074;28;20030;-76
2022/12/04 05:37:37;;;;;;;62.70;42.60;;;0.30;99.90;;;;;;4970410;28;20039;-75
2022/12/04 05:40:04;;;;;;;60.80;41.25;;;0.30;99.90;;;;;;4979390;28;20614;-75
2022/12/04 05:42:30;;;;;;;62.53;42.10;;;0.30;99.90;;;;;;4957390;28;20327;-76
2022/12/04 05:44:56;;;;;;;62.63;41.83;;;0.30;99.90;;;;;;4985929;28;20045;-75
2022/12/04 05:47:21;;;;;;;65.90;42.85;;;0.30;99.90;;;;;;4993962;28;20038;-75
2022/12/04 05:49:47;;;;;;;62.60;41.28;;;0.30;99.90;;;;;;4985091;28;20828;-76
2022/12/04 05:52:13;;;;;;;63.40;42.63;;;0.30;99.90;;;;;;4976690;28;20043;-75
2022/12/04 05:54:39;;;;;;;59.53;40.50;;;0.30;99.90;;;;;;4984842;28;20038;-76
2022/12/04 05:57:05;;;;;;;61.63;41.33;;;0.30;99.90;;;;;;4993875;28;20060;-76
2022/12/04 05:59:31;;;;;;;64.95;42.42;;;0.30;99.90;;;;;;4993966;28;20038;-75
2022/12/04 06:01:57;;;;;;;63.92;41.83;;;0.30;99.90;;;;;;5010233;28;20120;-75
2022/12/04 06:04:22;;;;;;;59.88;41.60;;;0.30;99.90;;;;;;4981239;28;20039;-75
2022/12/04 06:06:48;;;;;;;63.35;41.00;;;0.30;99.90;;;;;;4974508;28;20049;-75
2022/12/04 06:09:14;;;;;;;63.45;41.90;;;0.30;99.90;;;;;;4977311;28;20042;-75
2022/12/04 06:11:41;;;;;;;62.65;41.53;;;0.30;99.90;;;;;;4978089;28;20079;-75
2022/12/04 06:14:10;;;;;;;63.17;41.35;;;0.30;99.90;;;;;;4978200;28;20045;-77
2022/12/04 06:16:38;;;;;;;63.97;43.30;;;0.30;99.90;;;;;;4993879;28;20073;-75
2022/12/04 06:19:08;;;;;;;62.22;40.47;;;0.30;99.90;;;;;;4987309;28;20045;-75
2022/12/04 06:21:36;;;;;;;60.95;40.97;;;0.30;99.90;;;;;;4986781;28;20102;-75
2022/12/04 06:24:03;;;;;;;57.83;40.15;;;0.30;99.90;;;;;;4991328;28;20046;-76
2022/12/04 06:26:29;;;;;;;61.53;41.17;;;0.30;99.90;;;;;;4997225;28;20042;-75
2022/12/04 06:28:56;;;;;;;61.50;41.00;;;0.30;99.90;;;;;;4985490;28;20038;-75
2022/12/04 06:31:23;;;;;;;62.53;42.67;;;0.30;99.90;;;;;;4980143;28;20038;-75
2022/12/04 06:33:49;;;;;;;59.22;39.55;;;0.30;99.90;;;;;;5001046;28;20035;-75
2022/12/04 06:36:20;;;;;;;63.92;41.90;;;0.30;99.90;;;;;;4992837;28;20057;-75
2022/12/04 06:38:46;;;;;;;65.90;43.40;;;0.30;99.90;;;;;;4996963;28;20683;-76
2022/12/04 06:41:14;;;;;;;62.50;42.38;;;0.30;99.90;;;;;;4987659;28;20035;-75
2022/12/04 06:43:40;;;;;;;63.63;42.95;;;0.40;99.90;;;;;;4971429;28;20073;-76
2022/12/04 06:46:14;;;;;;;62.60;42.33;;;0.30;99.90;;;;;;4978660;28;20035;-77
2022/12/04 06:48:40;;;;;;;62.28;41.92;;;0.30;99.90;;;;;;4987368;28;20038;-75
2022/12/04 06:51:11;;;;;;;63.42;41.22;;;0.30;99.90;;;;;;4996927;28;20558;-76
2022/12/04 06:53:37;;;;;;;62.80;41.75;;;0.40;99.90;;;;;;4997285;28;20108;-75
2022/12/04 06:56:06;;;;;;;61.33;41.65;;;0.30;99.90;;;;;;4981134;28;20465;-76
2022/12/04 06:58:33;;;;;;;61.40;41.05;;;0.30;99.90;;;;;;4969570;28;20045;-75
2022/12/04 07:00:58;;;;;;;63.08;41.55;;;0.20;99.90;;;;;;4989796;28;20034;-76
2022/12/04 07:03:26;;;;;;;61.90;41.90;;;0.20;99.90;;;;;;4981410;28;20053;-76
2022/12/04 07:05:51;;;;;;;61.00;40.45;;;0.30;99.90;;;;;;4970016;28;20046;-76
2022/12/04 07:08:17;;;;;;;61.65;40.75;;;0.30;99.90;;;;;;4977113;28;20397;-76
2022/12/04 07:10:43;;;;;;;60.10;38.72;;;0.30;99.90;;;;;;4975738;28;20501;-76
2022/12/04 07:13:09;;;;;;;60.80;40.20;;;0.30;99.90;;;;;;4972631;28;20101;-76
2022/12/04 07:15:36;;;;;;;60.10;41.28;;;0.30;99.90;;;;;;4982831;28;20042;-76
2022/12/04 07:18:03;;;;;;;60.38;39.67;;;0.30;99.90;;;;;;4980924;28;20030;-76
2022/12/04 07:20:29;;;;;;;63.65;40.85;;;0.30;99.90;;;;;;4963933;28;20033;-75
2022/12/04 07:22:55;;;;;;;64.35;42.08;;;0.30;99.90;;;;;;4966365;28;20401;-76
2022/12/04 07:25:21;;;;;;;61.97;40.72;;;0.30;99.90;;;;;;4957809;28;20034;-75
2022/12/04 07:27:47;;;;;;;63.47;40.80;;;0.30;99.90;;;;;;4986762;28;20537;-76
2022/12/04 07:30:13;;;;;;;64.70;41.20;;;0.30;99.90;;;;;;4987905;28;20029;-75
2022/12/04 07:32:40;;;;;;;64.38;41.08;;;0.20;99.90;;;;;;4990314;28;20088;-76
2022/12/04 07:35:05;;;;;;;62.78;40.72;;;0.20;99.90;;;;;;4975759;28;20034;-76
2022/12/04 07:37:34;;;;;;;56.33;38.97;;;0.20;99.90;;;;;;4976479;28;20049;-77
2022/12/04 07:40:00;;;;;;;58.58;39.22;;;0.30;99.90;;;;;;4980595;28;20510;-76
2022/12/04 07:42:27;;;;;;;60.53;40.58;;;0.30;99.90;;;;;;4990691;28;20120;-76
2022/12/04 07:44:53;;;;;;;58.95;38.53;;;0.30;99.90;;;;;;4976778;28;20050;-75
2022/12/04 07:47:19;;;;;;;59.55;39.35;;;0.30;99.90;;;;;;4979131;28;20683;-75
2022/12/04 07:49:45;;;;;;;60.25;40.10;;;0.30;99.90;;;;;;4975425;28;20129;-75
2022/12/04 07:52:10;;;;;;;60.80;38.92;;;0.30;99.90;;;;;;4972865;28;20043;-75
2022/12/04 07:54:36;;;;;;;58.35;41.03;;;0.30;99.90;;;;;;4956874;28;20043;-76
2022/12/04 07:57:02;;;;;;;62.80;40.15;;;0.20;99.90;;;;;;4969088;28;20046;-76
2022/12/04 07:59:48;;;;;;;65.05;40.22;;;0.30;99.90;;;;;;4974149;28;20050;-77
2022/12/04 08:02:14;;;;;;;62.80;39.80;;;0.30;99.90;;;;;;4981951;28;20574;-75
2022/12/04 08:04:42;;;;;;;61.38;40.55;;;0.30;99.90;;;;;;4974441;28;20078;-76
2022/12/04 08:07:54;;;;;;;61.53;40.08;;;0.30;99.90;;;;;;4957028;28;20095;-80
2022/12/04 08:10:23;;;;;;;62.08;40.20;;;0.30;99.90;;;;;;4957133;28;20520;-77
2022/12/04 08:13:10;;;;;;;58.95;39.30;;;0.20;99.90;;;;;;4973043;28;20047;-77
2022/12/04 08:15:36;;;;;;;61.30;39.80;;;0.30;99.90;;;;;;4971822;28;20052;-77
2022/12/04 08:18:04;;;;;;;64.70;40.45;;;0.20;99.90;;;;;;4966249;28;20051;-77
2022/12/04 08:25:27;;;;;;;56.35;38.13;;;0.30;99.90;;;;;;4981621;28;20034;-77
2022/12/04 08:28:16;;;;;;;56.00;37.35;;;0.30;99.90;;;;;;4971858;28;20061;-75
2022/12/04 08:30:56;;;;;;;59.88;38.13;;;0.30;99.90;;;;;;4957802;28;20043;-76
2022/12/04 08:33:37;;;;;;;;;;;;;;;;;;;;;
2022/12/04 08:37:01;;;;;;;58.17;38.60;;;0.30;99.90;;;;;;4983439;28;20086;-77
2022/12/04 08:39:57;;;;;;;56.30;38.38;;;0.40;99.90;;;;;;4933965;29;20035;-75
2022/12/04 08:42:23;;;;;;;57.97;38.60;;;0.30;99.90;;;;;;4949762;28;20053;-76
2022/12/04 08:44:49;;;;;;;55.40;36.72;;;0.30;99.90;;;;;;4966909;28;20400;-76
2022/12/04 08:47:15;;;;;;;62.25;39.55;;;0.40;99.90;;;;;;4965862;28;20461;-76
2022/12/04 08:49:41;;;;;;;59.70;37.90;;;0.40;99.90;;;;;;4991477;28;20034;-75
2022/12/04 08:52:06;;;;;;;55.00;36.75;;;0.30;99.90;;;;;;4975321;28;20038;-76
2022/12/04 08:54:32;;;;;;;61.75;39.90;;;0.40;99.90;;;;;;4975811;28;20129;-76
2022/12/04 08:56:58;;;;;;;57.53;37.40;;;0.40;99.90;;;;;;4974546;28;20509;-76
2022/12/04 08:59:23;;;;;;;62.03;39.00;;;0.40;99.90;;;;;;4967592;28;20449;-78
2022/12/04 09:01:53;;;;;;;61.70;39.13;;;0.40;99.90;;;;;;4955984;28;20560;-76
2022/12/04 09:04:19;;;;;;;61.33;40.17;;;0.40;99.90;;;;;;4964598;28;20501;-76
2022/12/04 09:06:47;;;;;;;64.38;40.13;;;0.40;99.90;;;;;;4978523;28;20034;-76
2022/12/04 09:09:15;;;;;;;58.83;39.53;;;0.40;99.90;;;;;;4970586;28;20074;-76
2022/12/04 09:11:44;;;;;;;61.80;39.67;;;0.50;99.90;;;;;;4973743;28;20512;-76
2022/12/04 09:14:12;;;;;;;63.67;40.80;;;0.50;99.90;;;;;;4981100;28;20085;-77
2022/12/04 09:16:38;;;;;;;66.82;41.47;;;0.50;99.90;;;;;;4988115;28;20042;-76
2022/12/04 09:19:04;;;;;;;65.38;41.45;;;0.50;99.90;;;;;;4978320;28;20093;-77
2022/12/04 09:21:30;;;;;;;66.20;41.92;;;0.50;99.90;;;;;;4982356;28;20050;-76
2022/12/04 09:23:59;;;;;;;69.70;42.15;;;0.50;99.90;;;;;;4970368;28;20090;-76
2022/12/04 09:26:34;;;;;;;64.60;41.67;;;0.50;99.90;;;;;;4972563;28;20567;-80
2022/12/04 09:29:02;;;;;;;70.65;43.83;;;0.50;99.90;;;;;;4985864;28;20037;-75
2022/12/04 09:31:28;;;;;;;70.22;42.78;;;0.50;99.90;;;;;;4986409;28;20121;-75
2022/12/04 09:33:58;;;;;;;70.60;43.92;;;0.50;99.90;;;;;;4979833;28;20092;-76
2022/12/04 09:36:27;;;;;;;70.53;43.08;;;0.60;99.90;;;;;;4980243;28;20066;-78
2022/12/04 09:38:54;;;;;;;69.65;43.95;;;0.50;99.90;;;;;;4979517;28;20405;-79
2022/12/04 09:41:35;;;;;;;67.22;42.78;;;0.50;99.90;;;;;;4973082;28;20374;-78
2022/12/04 09:44:06;;;;;;;71.45;44.17;;;0.60;99.90;;;;;;4971917;28;20042;-78
2022/12/04 09:46:58;;;;;;;66.25;41.80;;;0.60;99.90;;;;;;4995864;28;20153;-78
2022/12/04 09:49:27;;;;;;;74.43;43.40;;;0.60;99.90;;;;;;4992334;28;20102;-75
2022/12/04 09:51:59;;;;;;;73.40;44.35;;;0.60;99.90;;;;;;4977719;28;20038;-76
2022/12/04 09:54:41;;;;;;;74.80;45.17;;;0.70;99.90;;;;;;4975956;28;20034;-78
2022/12/04 09:57:16;;;;;;;70.95;43.45;;;0.70;99.90;;;;;;5014466;28;20050;-79
2022/12/04 09:59:44;;;;;;;75.00;45.22;;;0.60;99.90;;;;;;4990406;28;20428;-79
2022/12/04 10:02:31;;;;;;;74.18;43.17;;;0.70;99.90;;;;;;4987731;28;20387;-79
2022/12/04 10:04:57;;;;;;;74.38;45.38;;;0.70;99.90;;;;;;4999540;28;20408;-79
2022/12/04 10:07:35;;;;;;;75.63;44.22;;;0.70;99.90;;;;;;4987755;28;20049;-79
2022/12/04 10:10:18;;;;;;;76.07;43.70;;;0.80;99.90;;;;;;4997421;28;20037;-79
2022/12/04 10:13:21;;;;;;;75.53;45.22;;;0.80;99.90;;;;;;4989547;28;20042;-78
2022/12/04 10:16:22;;;;;;;76.25;45.60;;;0.80;99.90;;;;;;4979165;28;20048;-79
2022/12/04 10:19:05;;;;;;;75.00;44.05;;;0.80;99.90;;;;;;4977430;28;20121;-75
2022/12/04 10:21:59;;;;;;;72.78;44.42;;;0.80;99.90;;;;;;4985085;28;20073;-77
2022/12/04 10:25:07;;;;;;;72.63;43.35;;;0.80;99.90;;;;;;4987177;28;20034;-80
2022/12/04 10:27:52;;;;;;;70.63;42.63;;;0.90;99.90;;;;;;4905084;29;20087;-79
2022/12/04 10:30:30;;;;;;;76.05;44.03;;;0.90;99.90;;;;;;4901512;28;20040;-80
2022/12/04 10:33:17;;;;;;;76.90;45.38;;;1.00;99.90;;;;;;4978508;28;20046;-80
2022/12/04 10:35:46;;;;;;;76.40;44.90;;;0.90;99.90;;;;;;4965761;28;20105;-77
2022/12/04 10:38:36;;;;;;;73.60;45.03;;;0.90;99.90;;;;;;4977904;28;20038;-77
2022/12/04 10:41:09;;;;;;;74.95;43.60;;;1.00;99.90;;;;;;4983032;28;20060;-76
2022/12/04 10:43:55;;;;;;;72.57;43.40;;;1.00;99.90;;;;;;4988905;28;20038;-77
2022/12/04 10:46:30;;;;;;;73.32;43.97;;;1.00;99.90;;;;;;4984416;28;20038;-77
2022/12/04 10:49:18;;;;;;;66.80;42.35;;;1.10;99.90;;;;;;4982956;28;20034;-77
2022/12/04 10:51:45;;;;;;;73.85;43.67;;;1.10;99.90;;;;;;4987123;28;20034;-77
2022/12/04 10:54:32;;;;;;;70.20;42.80;;;1.10;99.90;;;;;;5006521;28;20034;-77
2022/12/04 10:57:01;;;;;;;66.15;41.03;;;1.10;99.90;;;;;;4996883;28;20132;-77
2022/12/04 10:59:28;;;;;;;65.22;42.03;;;1.20;99.90;;;;;;4984282;28;20081;-77
2022/12/04 11:02:20;;;;;;;68.75;42.80;;;1.20;99.90;;;;;;4986717;28;20033;-76
2022/12/04 11:05:06;;;;;;;64.82;41.30;;;1.20;99.90;;;;;;4991177;28;20038;-76
2022/12/04 11:07:36;;;;;;;64.95;41.60;;;1.20;99.90;;;;;;4992778;28;20046;-77
2022/12/04 11:10:06;;;;;;;64.03;42.05;;;1.30;99.90;;;;;;4997838;28;20584;-77
2022/12/04 11:12:32;;;;;;;64.15;42.70;;;1.30;99.90;;;;;;4988341;28;20060;-77
2022/12/04 11:15:07;;;;;;;67.60;41.88;;;1.30;99.90;;;;;;4996639;28;20038;-77
2022/12/04 11:17:33;;;;;;;65.43;42.95;;;1.30;99.90;;;;;;4996182;28;20504;-77
2022/12/04 11:20:01;;;;;;;62.72;40.05;;;1.40;99.90;;;;;;4996171;28;20129;-77
2022/12/04 11:22:27;;;;;;;63.75;41.03;;;1.40;99.90;;;;;;4996348;28;20081;-77
2022/12/04 11:24:56;;;;;;;62.70;40.22;;;1.40;99.90;;;;;;4996282;28;20041;-77
2022/12/04 11:27:31;;;;;;;63.10;40.65;;;1.40;99.90;;;;;;4981907;28;20062;-77
2022/12/04 11:30:00;;;;;;;59.20;40.33;;;1.50;99.90;;;;;;4976684;28;20481;-78
2022/12/04 11:32:29;;;;;;;58.63;39.70;;;1.40;99.90;;;;;;4976642;28;20137;-77
2022/12/04 11:35:03;;;;;;;57.85;39.10;;;1.50;99.90;;;;;;4976445;28;20042;-77
2022/12/04 11:37:32;;;;;;;56.72;37.50;;;1.50;99.90;;;;;;4976549;28;20046;-78
2022/12/04 11:40:00;;;;;;;54.92;38.10;;;1.50;99.90;;;;;;4976573;28;20046;-78
2022/12/04 11:42:28;;;;;;;54.28;36.65;;;1.50;99.90;;;;;;4976334;28;20042;-77
2022/12/04 11:45:01;;;;;;;54.17;37.15;;;1.60;99.90;;;;;;4974741;28;20559;-77
2022/12/04 11:47:28;;;;;;;;;;;1.60;99.90;;;;;;4972586;28;20856;-77
2022/12/04 11:49:59;;;;;;;46.50;33.10;;;1.60;99.90;;;;;;4973710;28;19968;-77
2022/12/04 11:52:42;;;;;;;47.78;32.92;;;1.60;99.90;;;;;;4971882;28;20612;-77
2022/12/04 11:55:37;;;;;;;49.22;34.20;;;1.70;99.90;;;;;;4970923;28;20105;-77
2022/12/04 11:58:24;;;;;;;46.63;32.42;;;1.70;99.90;;;;;;4956279;28;20081;-77
2022/12/04 12:01:23;;;;;;;43.67;31.15;;;1.70;99.90;;;;;;4982816;28;20136;-77
2022/12/04 12:04:18;;;;;;;42.25;30.90;;;1.70;99.90;;;;;;4957377;28;20045;-77
2022/12/04 12:07:19;;;;;;;46.65;32.88;;;1.80;99.90;;;;;;4930035;28;20046;-77
2022/12/04 12:10:02;;;;;;;44.22;31.95;;;1.80;99.90;;;;;;4961380;28;20421;-77
2022/12/04 12:12:36;;;;;;;43.75;29.45;;;1.90;99.90;;;;;;4976314;28;20370;-77
2022/12/04 12:15:38;;;;;;;41.08;30.10;;;1.90;99.90;;;;;;4975928;28;20035;-77
2022/12/04 12:18:19;;;;;;;42.88;30.95;;;2.00;99.90;;;;;;4939227;28;20530;-77
2022/12/04 12:21:06;;;;;;;41.50;30.08;;;2.00;99.90;;;;;;4975719;28;20490;-77
2022/12/04 12:23:48;;;;;;;40.90;29.80;;;2.00;99.90;;;;;;4975656;28;20054;-77
2022/12/04 12:26:16;;;;;;;40.78;29.02;;;2.00;99.90;;;;;;4975679;28;20049;-77
2022/12/04 12:28:48;;;;;;;36.28;26.90;;;2.00;99.90;;;;;;4975390;28;20124;-77
2022/12/04 12:31:40;;;;;;;36.45;27.35;;;2.10;99.90;;;;;;4975645;28;20042;-77
2022/12/04 12:34:38;;;;;;;36.08;27.23;;;2.20;99.90;;;;;;4975192;28;20046;-78
2022/12/04 12:37:16;;;;;;;35.85;25.65;;;2.20;99.90;;;;;;4991220;28;20117;-78
2022/12/04 12:40:08;;;;;;;34.40;25.73;;;2.20;99.90;;;;;;4975380;28;20046;-77
2022/12/04 12:42:46;;;;;;;33.60;25.10;;;2.20;99.90;;;;;;4977965;28;20509;-77
2022/12/04 12:45:30;;;;;;;32.90;24.48;;;2.20;99.90;;;;;;4975302;28;20078;-77
2022/12/04 12:48:05;;;;;;;31.05;22.77;;;2.20;99.90;;;;;;4975021;28;20515;-78
2022/12/04 12:50:51;;;;;;;30.77;23.52;;;2.30;99.90;;;;;;4976885;28;20038;-77
2022/12/04 12:53:30;;;;;;;28.52;21.92;;;2.30;99.90;;;;;;4970089;28;20090;-77
2022/12/04 12:56:00;;;;;;;29.20;21.65;;;2.30;99.90;;;;;;4958693;28;20035;-77
2022/12/04 12:58:41;;;;;;;31.52;22.23;;;2.40;99.90;;;;;;4964003;28;20042;-77
2022/12/04 13:01:18;;;;;;;27.40;21.02;;;2.40;99.90;;;;;;4961842;28;20115;-78
2022/12/04 13:03:59;;;;;;;27.33;20.80;;;2.40;99.90;;;;;;4972735;28;20061;-77
2022/12/04 13:06:41;;;;;;;29.17;21.33;;;2.50;99.90;;;;;;4964570;28;20034;-77
2022/12/04 13:09:13;;;;;;;28.17;21.83;;;2.50;99.90;;;;;;4971572;28;20464;-77
2022/12/04 13:11:40;;;;;;;30.25;20.08;;;2.50;99.90;;;;;;4971392;28;20540;-78
2022/12/04 13:14:06;;;;;;;27.13;21.05;;;2.50;99.90;;;;;;4969284;28;20089;-78
2022/12/04 13:16:43;;;;;;;26.67;20.48;;;2.60;99.90;;;;;;4966639;28;20039;-77
2022/12/04 13:19:31;;;;;;;28.83;21.60;;;2.50;99.90;;;;;;4971557;28;20085;-77
2022/12/04 13:22:12;;;;;;;29.05;20.83;;;2.50;99.90;;;;;;4968928;28;20053;-78
2022/12/04 13:24:53;;;;;;;28.63;21.13;;;2.50;99.90;;;;;;4988046;28;20042;-77
2022/12/04 13:27:45;;;;;;;28.58;21.73;;;2.50;99.90;;;;;;4977989;28;20468;-77